Time;durP1;ratioP1;P1;durP2;ratioP2;P2;SDS_P1;SDS_P2;PMS_P1;PMS_P2;Temp;Humidity;BMP_temperature;BMP_pressure;BME280_temperature;BME280_humidity;BME280_pressure;Samples;Min_cycle;Max_cycle;Signal;HPM_P1;HPM_P2
2023/08/03 00:01:10;;;;;;;2.25;1.65;;;17.60;99.90;;;-141.84;83.05;20744.78;5044440;28;20201;-59
2023/08/03 00:03:40;;;;;;;3.47;1.95;;;17.60;99.90;;;-141.84;83.59;20716.31;5044127;28;20212;-58
2023/08/03 00:06:08;;;;;;;3.15;2.03;;;17.50;99.90;;;-141.84;84.63;20712.25;5044314;28;20229;-59
2023/08/03 00:08:36;;;;;;;2.78;1.70;;;17.40;99.90;;;-141.84;83.66;20736.63;5041391;28;20220;-60
2023/08/03 00:11:04;;;;;;;2.40;1.70;;;17.50;99.90;;;-141.84;84.52;20698.00;5063736;28;20224;-59
2023/08/03 00:13:32;;;;;;;5.15;2.28;;;17.40;99.90;;;-141.84;83.97;20734.59;5063738;28;20274;-59
2023/08/03 00:16:01;;;;;;;4.05;2.10;;;17.40;99.90;;;-141.84;83.23;20716.31;5064359;28;20299;-58
2023/08/03 00:18:29;;;;;;;2.67;1.52;;;17.50;99.90;;;-141.84;84.37;20679.72;5058123;28;20217;-60
2023/08/03 00:20:58;;;;;;;4.75;1.73;;;17.40;99.90;;;-141.84;85.06;20689.88;5052775;28;20784;-59
2023/08/03 00:23:26;;;;;;;3.38;1.40;;;17.40;99.90;;;-141.84;85.01;20685.81;5063869;28;20263;-60
2023/08/03 00:25:55;;;;;;;4.28;2.10;;;17.30;99.90;;;-141.84;85.20;20691.91;5063894;28;20239;-60
2023/08/03 00:28:23;;;;;;;2.33;1.40;;;17.20;99.90;;;-141.84;85.93;20657.34;5063808;28;20755;-59
2023/08/03 00:30:51;;;;;;;3.78;2.00;;;17.10;99.90;;;-141.84;86.60;20610.59;5059771;28;20633;-59
2023/08/03 00:33:19;;;;;;;2.72;1.60;;;17.00;99.90;;;-141.84;87.24;20588.25;5067688;28;20240;-59
2023/08/03 00:35:48;;;;;;;2.15;1.75;;;17.00;99.90;;;-141.84;87.28;20620.78;5067804;28;20891;-60
2023/08/03 00:38:17;;;;;;;3.15;1.73;;;16.90;99.90;;;-141.84;87.39;20612.63;5067809;28;20309;-60
2023/08/03 00:40:45;;;;;;;2.58;1.50;;;16.90;99.90;;;-141.84;87.26;20635.00;5060160;28;20307;-59
2023/08/03 00:43:14;;;;;;;4.63;1.60;;;17.00;99.90;;;-141.84;87.17;20643.13;5067529;28;20643;-60
2023/08/03 00:45:42;;;;;;;4.05;1.60;;;17.00;99.90;;;-141.84;86.46;20618.72;5067968;28;20673;-59
2023/08/03 00:48:10;;;;;;;5.07;1.80;;;17.00;99.90;;;-141.84;86.15;20700.03;5067670;28;20705;-59
2023/08/03 00:50:38;;;;;;;4.20;2.40;;;17.10;99.90;;;-141.84;86.02;20655.31;5058841;28;20267;-60
2023/08/03 00:53:07;;;;;;;4.40;1.88;;;17.10;99.90;;;-141.84;85.73;20665.50;5062450;28;20235;-60
2023/08/03 00:55:36;;;;;;;3.38;1.98;;;17.20;99.90;;;-141.84;85.12;20724.44;5047072;28;20232;-59
2023/08/03 00:58:05;;;;;;;3.03;1.75;;;17.20;99.90;;;-141.84;84.97;20675.66;5047964;28;20356;-59
2023/08/03 01:00:33;;;;;;;1.95;1.52;;;17.20;99.90;;;-141.84;85.17;20702.09;5040252;28;20751;-60
2023/08/03 01:03:02;;;;;;;3.85;1.60;;;17.20;99.90;;;-141.84;84.68;20712.25;5047273;28;20229;-59
2023/08/03 01:05:32;;;;;;;3.90;1.98;;;17.20;99.90;;;-141.84;84.44;20691.91;5046524;28;20253;-59
2023/08/03 01:08:00;;;;;;;3.80;1.70;;;17.30;99.90;;;-141.84;83.95;20667.53;5046771;28;20282;-59
2023/08/03 01:10:30;;;;;;;3.88;1.80;;;;;;;-141.84;83.86;20669.56;5062738;28;20236;-59
2023/08/03 01:12:59;;;;;;;4.00;1.73;;;17.20;99.90;;;-141.84;83.69;20718.34;5066985;28;20213;-59
2023/08/03 01:15:28;;;;;;;2.25;1.45;;;17.20;99.90;;;-141.84;83.26;20620.78;5066616;28;20678;-58
2023/08/03 01:17:56;;;;;;;5.20;1.98;;;17.20;99.90;;;-141.84;81.44;20700.03;5066754;28;20232;-59
2023/08/03 01:20:26;;;;;;;3.78;2.00;;;17.20;99.90;;;-141.84;82.18;20683.78;5046376;28;20233;-60
2023/08/03 01:22:55;;;;;;;4.28;1.80;;;17.20;99.90;;;-141.84;82.31;20706.16;5040797;28;20259;-59
2023/08/03 01:25:23;;;;;;;5.88;2.03;;;17.20;99.90;;;-141.84;82.23;20671.59;5049521;28;20217;-59
2023/08/03 01:27:52;;;;;;;4.18;2.05;;;17.20;99.90;;;-141.84;80.58;20726.47;5067341;28;20205;-59
2023/08/03 01:30:20;;;;;;;5.32;1.80;;;17.20;99.90;;;-141.84;80.76;20671.59;5067050;28;20243;-59
2023/08/03 01:32:48;;;;;;;5.22;1.50;;;17.20;99.90;;;-141.84;80.35;20679.72;5060161;28;22081;-60
2023/08/03 01:35:17;;;;;;;5.32;2.05;;;17.20;99.90;;;-141.84;80.34;20712.25;5066138;28;20719;-61
2023/08/03 01:37:45;;;;;;;2.38;1.63;;;17.20;99.90;;;-141.84;79.94;20712.25;5066929;28;20256;-60
2023/08/03 01:40:14;;;;;;;5.22;2.33;;;17.20;99.90;;;-141.84;80.09;20677.69;5066597;28;20299;-60
2023/08/03 01:42:43;;;;;;;4.15;1.90;;;17.20;99.90;;;-141.84;79.84;20695.97;5058473;28;20215;-59
2023/08/03 01:45:11;;;;;;;6.25;2.00;;;17.20;99.90;;;-141.84;79.27;20732.56;5066182;28;20230;-59
2023/08/03 01:47:39;;;;;;;3.80;1.90;;;17.20;99.90;;;-141.84;78.36;20736.63;5066263;28;20239;-60
2023/08/03 01:50:08;;;;;;;3.85;2.00;;;17.20;99.90;;;-141.84;77.18;20740.69;5054499;28;20643;-59
2023/08/03 01:52:36;;;;;;;4.32;1.80;;;17.30;99.90;;;-141.84;77.72;20728.50;5039412;28;20673;-60
2023/08/03 01:55:06;;;;;;;4.38;1.90;;;17.30;99.90;;;-141.84;76.67;20748.84;5046817;28;20316;-59
2023/08/03 01:57:36;;;;;;;6.38;1.75;;;17.40;99.90;;;-141.84;76.95;20744.78;5046828;28;20586;-60
2023/08/03 02:00:05;;;;;;;4.45;1.77;;;17.40;99.90;;;-141.84;76.51;20775.25;5045983;28;20237;-60
2023/08/03 02:02:33;;;;;;;7.13;1.92;;;17.40;99.90;;;-141.84;76.79;20752.91;5039469;28;20229;-59
2023/08/03 02:05:02;;;;;;;3.83;1.80;;;17.40;99.90;;;-141.84;75.19;20799.66;5045944;28;20244;-59
2023/08/03 02:07:46;;;;;;;3.78;1.60;;;17.40;99.90;;;-141.84;75.29;20793.56;5046099;28;20271;-59
2023/08/03 02:10:15;;;;;;;4.25;1.83;;;17.40;99.90;;;-141.84;75.64;20783.41;5064377;28;20205;-58
2023/08/03 02:12:44;;;;;;;5.15;1.77;;;17.40;99.90;;;-141.84;75.96;20732.56;5059392;28;20277;-60
2023/08/03 02:15:13;;;;;;;4.10;1.80;;;17.40;99.90;;;-141.84;73.54;20822.03;5065269;28;20271;-58
2023/08/03 02:17:42;;;;;;;6.18;2.28;;;17.40;99.90;;;-141.84;74.75;20759.00;5066129;28;20279;-59
2023/08/03 02:20:12;;;;;;;5.00;2.13;;;17.50;99.90;;;-141.84;74.31;20797.63;5062447;28;20232;-59
2023/08/03 02:22:40;;;;;;;6.38;2.00;;;17.40;99.90;;;-141.84;73.86;20803.72;5058723;28;20228;-59
2023/08/03 02:25:09;;;;;;;6.00;1.90;;;17.50;99.90;;;-141.84;74.86;20803.72;5066017;28;20294;-60
2023/08/03 02:27:37;;;;;;;5.32;1.88;;;17.40;99.90;;;-141.84;74.62;20795.59;5065970;28;20288;-59
2023/08/03 02:30:10;;;;;;;3.40;1.77;;;17.40;99.90;;;-141.84;76.19;20746.81;5065859;28;20268;-58
2023/08/03 02:32:39;;;;;;;6.00;2.00;;;17.30;99.90;;;-141.84;76.02;20738.66;5057660;28;20247;-60
2023/08/03 02:35:08;;;;;;;3.20;1.55;;;17.30;99.90;;;-141.84;76.56;20714.28;5065017;28;20338;-60
2023/08/03 02:37:36;;;;;;;4.15;1.65;;;17.20;99.90;;;-141.84;76.99;20728.50;5065439;28;20747;-59
2023/08/03 02:40:08;;;;;;;3.92;1.85;;;17.10;99.90;;;-141.84;77.60;20704.13;5065539;28;20205;-59
2023/08/03 02:42:37;;;;;;;8.13;1.75;;;17.10;99.90;;;-141.84;77.73;20695.97;5058233;28;20225;-58
2023/08/03 02:45:09;;;;;;;4.40;1.90;;;17.00;99.90;;;-141.84;78.25;20675.66;5064406;28;20227;-59
2023/08/03 02:47:37;;;;;;;3.97;1.70;;;17.00;99.90;;;-141.84;78.59;20685.81;5045916;28;20225;-59
2023/08/03 02:50:06;;;;;;;2.70;1.50;;;16.90;99.90;;;-141.84;79.17;20635.00;5064542;28;20244;-59
2023/08/03 02:52:34;;;;;;;5.18;2.15;;;16.80;99.90;;;-141.84;79.03;20641.09;5057700;28;20227;-60
2023/08/03 02:55:03;;;;;;;4.90;2.10;;;16.80;99.90;;;-141.84;79.68;20643.13;5065705;28;20224;-59
2023/08/03 02:57:31;;;;;;;4.22;1.70;;;16.70;99.90;;;-141.84;79.29;20647.19;5064764;28;20315;-58
2023/08/03 02:59:59;;;;;;;5.88;1.90;;;16.70;99.90;;;-141.84;79.76;20596.38;5052523;28;20666;-59
2023/08/03 03:02:29;;;;;;;3.03;1.90;;;16.60;99.90;;;-141.84;80.25;20602.47;5044420;28;20688;-58
2023/08/03 03:04:57;;;;;;;3.97;2.10;;;16.60;99.90;;;-141.84;80.37;20657.34;5042622;28;20229;-60
2023/08/03 03:07:25;;;;;;;5.32;1.98;;;16.50;99.90;;;-141.84;80.66;20612.63;5045092;28;20209;-59
2023/08/03 03:09:53;;;;;;;4.68;1.85;;;16.50;99.90;;;-141.84;80.52;20586.22;5061189;28;20216;-59
2023/08/03 03:12:22;;;;;;;5.43;1.73;;;16.50;99.90;;;-141.84;80.67;20637.03;5064837;28;20232;-59
2023/08/03 03:14:50;;;;;;;3.30;1.80;;;16.50;99.90;;;-141.84;80.55;20590.28;5057094;28;20542;-59
2023/08/03 03:17:18;;;;;;;3.85;1.95;;;16.50;99.90;;;-141.84;79.95;20614.66;5064594;28;20255;-59
2023/08/03 03:19:47;;;;;;;5.00;1.88;;;16.60;99.90;;;-141.84;80.21;20610.59;5050075;28;20321;-60
2023/08/03 03:22:16;;;;;;;3.53;1.63;;;16.60;99.90;;;-141.84;80.73;20582.16;5044270;28;20212;-59
2023/08/03 03:24:44;;;;;;;4.47;1.77;;;16.60;99.90;;;-141.84;79.56;20663.47;5038048;28;20731;-59
2023/08/03 03:27:12;;;;;;;3.55;1.92;;;16.60;99.90;;;-141.84;79.88;20647.19;5061625;28;20315;-60
2023/08/03 03:29:40;;;;;;;3.88;1.77;;;16.70;99.90;;;-141.84;80.67;20596.38;5064273;28;20319;-60
2023/08/03 03:32:08;;;;;;;5.32;1.95;;;16.60;99.90;;;-141.84;80.74;20598.41;5064463;28;20311;-60
2023/08/03 03:34:37;;;;;;;2.28;1.80;;;16.60;99.90;;;-141.84;80.81;20588.25;5057516;28;20220;-60
2023/08/03 03:37:09;;;;;;;5.25;1.67;;;16.60;99.90;;;-141.84;81.18;20622.81;5064454;28;20317;-60
2023/08/03 03:39:37;;;;;;;5.30;1.80;;;16.60;99.90;;;-141.84;80.90;20584.19;5065058;28;20307;-59
2023/08/03 03:42:06;;;;;;;4.93;1.92;;;16.60;99.90;;;-141.84;81.33;20594.34;5056447;28;20237;-60
2023/08/03 03:44:34;;;;;;;4.43;1.92;;;16.60;99.90;;;-141.84;81.23;20610.59;5037082;28;20308;-60
2023/08/03 03:47:02;;;;;;;3.50;1.90;;;16.60;99.90;;;-141.84;81.10;20620.78;5064432;28;20315;-59
2023/08/03 03:49:30;;;;;;;5.53;1.75;;;16.60;99.90;;;-141.84;80.78;20598.41;5063457;28;20229;-58
2023/08/03 03:51:58;;;;;;;3.33;1.85;;;16.60;99.90;;;-141.84;80.98;20626.88;5063650;28;20236;-58
2023/08/03 03:54:28;;;;;;;4.43;1.95;;;16.70;99.90;;;-141.84;80.94;20628.91;5064207;28;20234;-60
2023/08/03 03:56:57;;;;;;;3.65;1.73;;;16.70;99.90;;;-141.84;80.55;20669.56;5041727;28;20692;-60
2023/08/03 03:59:26;;;;;;;4.13;1.90;;;16.80;99.90;;;-141.84;80.07;20616.69;5044207;28;20235;-59
2023/08/03 04:01:55;;;;;;;2.80;1.55;;;16.80;99.90;;;-141.84;80.25;20641.09;5042946;28;20244;-61
2023/08/03 04:04:23;;;;;;;4.45;1.77;;;16.80;99.90;;;-141.84;79.70;20663.47;5043348;28;20244;-60
2023/08/03 04:06:51;;;;;;;6.32;1.98;;;16.80;99.90;;;-141.84;79.70;20663.47;5057712;28;20311;-60
2023/08/03 04:09:19;;;;;;;5.38;2.03;;;16.90;99.90;;;-141.84;78.88;20722.41;5064030;28;20803;-59
2023/08/03 04:11:49;;;;;;;6.45;2.00;;;16.90;99.90;;;-141.84;78.84;20659.38;5064089;28;20256;-59
2023/08/03 04:14:17;;;;;;;4.07;1.55;;;16.90;99.90;;;-141.84;79.14;20663.47;5063545;28;20278;-59
2023/08/03 04:16:45;;;;;;;7.15;2.00;;;16.80;99.90;;;-141.84;79.63;20669.56;5056710;28;20432;-59
2023/08/03 04:19:13;;;;;;;3.97;1.83;;;16.90;99.90;;;-141.84;79.01;20675.66;5053938;28;20316;-60
2023/08/03 04:21:41;;;;;;;5.20;1.70;;;16.90;99.90;;;-141.84;78.75;20689.88;5044749;28;20683;-59
2023/08/03 04:24:10;;;;;;;4.82;1.95;;;17.00;99.90;;;-141.84;78.14;20718.34;5043890;28;20237;-61
2023/08/03 04:26:38;;;;;;;6.05;2.10;;;17.00;99.90;;;-141.84;77.81;20736.63;5049365;28;20624;-60
2023/08/03 04:29:08;;;;;;;3.67;1.95;;;17.10;99.90;;;-141.84;77.67;20736.63;5063820;28;20324;-59
2023/08/03 04:31:36;;;;;;;3.85;1.77;;;17.20;99.90;;;-141.84;77.49;20698.00;5063708;28;20911;-59
2023/08/03 04:34:04;;;;;;;4.53;2.00;;;17.20;99.90;;;-141.84;77.09;20698.00;5064168;28;20208;-60
2023/08/03 04:36:32;;;;;;;3.58;1.73;;;17.20;99.90;;;-141.84;76.42;20761.03;5057021;28;20268;-59
2023/08/03 04:39:01;;;;;;;2.53;1.52;;;17.20;99.90;;;-141.84;77.08;20704.13;5051313;28;20609;-60
2023/08/03 04:41:29;;;;;;;3.88;1.92;;;17.30;99.90;;;-141.84;76.23;20767.13;5043897;28;20877;-59
2023/08/03 04:43:57;;;;;;;3.95;1.50;;;17.30;99.90;;;-141.84;75.18;20801.69;5043765;28;20225;-60
2023/08/03 04:46:27;;;;;;;5.05;1.70;;;17.30;99.90;;;-141.84;74.78;20824.06;5058994;28;20235;-59
2023/08/03 04:48:55;;;;;;;4.63;2.13;;;17.30;99.90;;;-141.84;74.64;20809.81;5063976;28;20215;-61
2023/08/03 04:51:23;;;;;;;9.40;2.25;;;17.40;99.90;;;-141.84;75.13;20781.38;5061134;28;20236;-59
2023/08/03 04:53:51;;;;;;;2.92;1.73;;;17.50;99.90;;;-141.84;74.75;20795.59;5043910;28;20260;-59
2023/08/03 04:56:20;;;;;;;3.55;1.60;;;17.50;99.90;;;-141.84;73.22;20852.50;5043915;28;20251;-58
2023/08/03 04:58:48;;;;;;;4.38;1.50;;;;;;;-141.84;70.78;20925.69;5036504;28;20320;-59
2023/08/03 05:01:16;;;;;;;8.15;1.77;;;17.80;99.90;;;-141.84;70.13;20972.47;5048111;28;20651;-60
2023/08/03 05:03:46;;;;;;;6.45;1.60;;;18.00;99.90;;;-141.84;69.96;21088.34;5064247;28;20208;-59
2023/08/03 05:06:14;;;;;;;3.22;1.60;;;18.30;99.90;;;-141.84;63.54;21480.72;5063511;28;20331;-60
2023/08/03 05:08:43;;;;;;;4.38;1.60;;;19.20;99.90;;;-141.84;58.21;21852.81;5056337;28;20652;-59
2023/08/03 05:11:11;;;;;;;6.03;1.48;;;20.40;99.90;;;-141.84;53.01;22294.09;5063916;28;20256;-59
2023/08/03 05:13:40;;;;;;;6.05;1.45;;;21.50;99.90;;;-141.84;51.11;22422.22;5063290;28;20285;-59
2023/08/03 05:16:08;;;;;;;4.95;1.20;;;22.20;99.90;;;-141.84;50.49;22556.47;5064838;28;20220;-60
2023/08/03 05:18:36;;;;;;;6.72;1.50;;;22.80;99.90;;;-141.84;48.93;22643.91;5055754;28;20225;-58
2023/08/03 05:21:06;;;;;;;5.78;1.55;;;23.30;99.90;;;-141.84;48.26;22656.13;5047462;28;20271;-60
2023/08/03 05:23:34;;;;;;;3.97;1.42;;;23.20;99.90;;;-141.84;48.61;22629.66;5047122;28;20286;-59
2023/08/03 05:26:02;;;;;;;2.78;1.00;;;23.30;99.90;;;-141.84;49.52;22471.03;5054673;28;20303;-59
2023/08/03 05:28:32;;;;;;;4.43;1.33;;;;;;;-141.84;51.99;22212.75;5062762;28;20316;-63
2023/08/03 05:31:00;;;;;;;3.67;0.95;;;22.70;99.90;;;-141.84;52.93;22064.31;5067631;28;20235;-62
2023/08/03 05:33:28;;;;;;;3.35;1.20;;;22.40;99.90;;;-141.84;54.60;21940.25;5066674;28;20243;-60
2023/08/03 05:35:57;;;;;;;3.65;0.98;;;22.00;99.90;;;-141.84;55.90;21844.69;5048179;28;20291;-62
2023/08/03 05:38:27;;;;;;;3.95;1.83;;;21.60;99.90;;;-141.84;55.48;21820.28;5059002;28;20659;-60
2023/08/03 05:40:55;;;;;;;6.10;1.58;;;21.40;99.90;;;-141.84;55.90;21822.31;5062197;28;20286;-60
2023/08/03 05:43:27;;;;;;;2.97;1.08;;;21.20;99.90;;;-141.84;56.40;21838.59;5066880;28;20240;-60
2023/08/03 05:46:01;;;;;;;3.30;1.20;;;21.30;99.90;;;-141.84;54.66;21885.38;5067297;28;20292;-60
2023/08/03 05:48:31;;;;;;;5.53;1.42;;;21.40;99.90;;;-141.84;55.14;21976.88;5063464;28;20231;-60
2023/08/03 05:50:59;;;;;;;2.03;1.00;;;21.60;99.90;;;-141.84;54.28;22029.75;5066103;28;20240;-60
2023/08/03 05:53:29;;;;;;;2.22;1.08;;;21.80;99.90;;;-141.84;53.48;22031.78;5066558;28;20256;-59
2023/08/03 05:55:57;;;;;;;4.25;1.30;;;22.00;99.90;;;-141.84;53.81;22021.59;5066676;28;20307;-59
2023/08/03 05:58:38;;;;;;;2.95;1.25;;;22.00;99.90;;;-141.84;54.53;21962.63;5059403;28;20259;-61
2023/08/03 06:01:11;;;;;;;4.20;1.20;;;21.80;99.90;;;-141.84;54.05;21999.25;5066424;28;20213;-59
2023/08/03 06:03:44;;;;;;;3.10;1.15;;;21.80;99.90;;;-141.84;53.93;22013.47;5066533;28;20227;-59
2023/08/03 06:06:18;;;;;;;4.57;1.52;;;21.90;99.90;;;-141.84;54.38;21897.56;5066116;28;20289;-60
2023/08/03 06:08:51;;;;;;;2.63;1.38;;;21.80;99.90;;;-141.84;55.31;21907.72;5059042;28;20653;-59
2023/08/03 06:11:20;;;;;;;3.38;1.25;;;21.60;99.90;;;-141.84;54.58;21944.34;5066469;28;20262;-60
2023/08/03 06:13:54;;;;;;;2.10;0.93;;;21.70;99.90;;;-141.84;54.60;21934.16;5066406;28;20244;-59
2023/08/03 06:16:24;;;;;;;4.15;1.23;;;21.70;99.90;;;-141.84;54.57;21924.00;5065836;28;20235;-61
2023/08/03 06:18:55;;;;;;;4.60;1.08;;;21.70;99.90;;;-141.84;53.86;21891.47;5052075;28;20223;-60
2023/08/03 06:21:26;;;;;;;3.03;1.17;;;21.70;99.90;;;-141.84;54.35;21858.94;5045929;28;20325;-60
2023/08/03 06:23:59;;;;;;;3.75;1.10;;;21.60;99.90;;;-141.84;54.74;21869.09;5046064;28;20315;-59
2023/08/03 06:26:31;;;;;;;3.30;0.90;;;21.60;99.90;;;-141.84;53.98;21942.31;5057127;28;20683;-60
2023/08/03 06:29:01;;;;;;;2.35;0.90;;;21.80;99.90;;;-141.84;53.16;21980.94;5065116;28;20236;-60
2023/08/03 06:31:35;;;;;;;2.17;0.82;;;21.90;99.90;;;-141.84;53.18;21952.47;5053340;28;20225;-59
2023/08/03 06:34:04;;;;;;;3.45;0.75;;;21.90;99.90;;;-141.84;52.32;22019.56;5045474;28;20303;-59
2023/08/03 06:36:32;;;;;;;2.50;0.90;;;22.10;99.90;;;-141.84;53.15;21991.09;5038740;28;20316;-60
2023/08/03 06:39:02;;;;;;;2.45;0.80;;;22.00;99.90;;;-141.84;52.94;22021.59;5063307;28;20236;-60
2023/08/03 06:41:30;;;;;;;3.50;0.77;;;22.00;99.90;;;-141.84;53.48;21891.47;5065858;28;20232;-59
2023/08/03 06:44:00;;;;;;;2.33;0.80;;;21.70;99.90;;;-141.84;53.80;21911.78;5065939;28;20232;-60
2023/08/03 06:46:29;;;;;;;2.88;0.90;;;21.60;99.90;;;-141.84;54.22;21867.06;5065457;28;20299;-59
2023/08/03 06:48:58;;;;;;;2.03;0.75;;;21.50;99.90;;;-141.84;55.61;21826.41;5063175;28;20692;-59
2023/08/03 06:51:26;;;;;;;3.20;0.80;;;21.30;99.90;;;-141.84;55.66;21795.88;5064890;28;20854;-60
2023/08/03 06:53:55;;;;;;;2.80;1.00;;;21.20;99.90;;;-141.84;55.43;21834.53;5065394;28;20320;-59
2023/08/03 06:56:24;;;;;;;2.78;0.95;;;21.20;99.90;;;-141.84;55.66;21816.22;5064928;28;20324;-59
2023/08/03 06:58:53;;;;;;;4.57;0.98;;;21.20;99.90;;;-141.84;55.43;21818.25;5058497;28;20228;-60
2023/08/03 07:01:21;;;;;;;0.98;0.73;;;21.20;99.90;;;-141.84;54.41;21858.94;5065415;28;20263;-59
2023/08/03 07:03:49;;;;;;;1.77;0.60;;;21.20;99.90;;;-141.84;54.17;21917.91;5065698;28;20213;-60
2023/08/03 07:06:17;;;;;;;2.72;0.73;;;21.40;99.90;;;-141.84;53.63;21968.72;5064932;28;20228;-60
2023/08/03 07:08:46;;;;;;;1.45;0.63;;;21.60;99.90;;;-141.84;53.02;22013.47;5057396;28;20220;-58
2023/08/03 07:11:14;;;;;;;2.25;0.63;;;21.80;99.90;;;-141.84;52.69;21993.13;5064588;28;20877;-59
2023/08/03 07:13:43;;;;;;;1.60;0.60;;;21.90;99.90;;;-141.84;53.04;21960.59;5065003;28;20310;-61
2023/08/03 07:16:11;;;;;;;2.55;0.65;;;21.90;99.90;;;-141.84;52.97;22011.44;5063642;28;20216;-59
2023/08/03 07:18:40;;;;;;;1.60;1.08;;;21.90;99.90;;;-141.84;52.52;22037.88;5052468;28;20225;-60
2023/08/03 07:21:08;;;;;;;2.38;0.70;;;22.00;99.90;;;-141.84;52.26;22058.22;5044442;28;20876;-59
2023/08/03 07:23:36;;;;;;;2.63;0.75;;;22.10;99.90;;;-141.84;52.81;21993.13;5059211;28;20231;-60
2023/08/03 07:26:04;;;;;;;1.10;0.68;;;21.90;99.90;;;-141.84;53.78;21956.53;5064566;28;20567;-60
2023/08/03 07:28:33;;;;;;;1.55;0.60;;;21.80;99.90;;;-141.84;53.63;21928.06;5038876;28;20294;-60
2023/08/03 07:31:03;;;;;;;2.85;0.68;;;21.70;99.90;;;-141.84;53.92;21964.66;5044803;28;20826;-61
2023/08/03 07:33:31;;;;;;;1.23;0.70;;;21.70;99.90;;;-141.84;53.88;21952.47;5044761;28;20236;-60
2023/08/03 07:35:59;;;;;;;2.88;1.20;;;21.70;99.90;;;-141.84;54.45;21936.19;5044396;28;20233;-59
2023/08/03 07:38:27;;;;;;;1.92;0.82;;;21.60;99.90;;;-141.84;54.61;21913.84;5055524;28;20668;-60
2023/08/03 07:40:56;;;;;;;2.28;0.70;;;21.60;99.90;;;-141.84;54.67;21875.19;5058987;28;20307;-59
2023/08/03 07:43:24;;;;;;;2.35;0.60;;;21.50;99.90;;;-141.84;55.40;21905.69;5064836;28;20295;-60
2023/08/03 07:45:52;;;;;;;1.73;0.75;;;21.40;99.90;;;-141.84;53.70;21883.31;5064840;28;20239;-58
2023/08/03 07:48:21;;;;;;;4.85;0.70;;;21.50;99.90;;;-141.84;54.28;21822.31;5064589;28;20243;-60
2023/08/03 07:50:50;;;;;;;2.53;0.60;;;21.30;99.90;;;-141.84;54.63;21808.09;5056718;28;20322;-58
2023/08/03 07:53:18;;;;;;;2.03;0.77;;;21.30;99.90;;;-141.84;53.98;21812.16;5064205;28;20319;-60
2023/08/03 07:55:46;;;;;;;2.30;0.60;;;21.20;99.90;;;-141.84;54.25;21789.78;5064375;28;20310;-60
2023/08/03 07:58:14;;;;;;;2.90;0.50;;;21.20;99.90;;;-141.84;54.12;21781.66;5063815;28;20240;-58
2023/08/03 08:00:42;;;;;;;0.60;0.57;;;21.10;99.90;;;-141.84;55.50;21692.19;5057609;28;20829;-59
2023/08/03 08:03:10;;;;;;;2.90;0.68;;;20.90;99.90;;;-141.84;55.40;21720.66;5064175;28;20236;-60
2023/08/03 08:05:40;;;;;;;1.13;0.50;;;20.80;99.90;;;-141.84;54.74;21708.47;5064034;28;20236;-60
2023/08/03 08:08:08;;;;;;;1.20;0.60;;;20.80;99.90;;;-141.84;54.97;21714.56;5063907;28;20606;-59
2023/08/03 08:10:37;;;;;;;1.85;0.60;;;20.80;99.90;;;-141.84;54.15;21714.56;5057209;28;20220;-59
2023/08/03 08:13:05;;;;;;;1.45;0.90;;;20.80;99.90;;;-141.84;54.19;21712.53;5064707;28;20304;-59
2023/08/03 08:15:36;;;;;;;4.68;1.05;;;20.80;99.90;;;-141.84;54.67;21686.09;5064604;28;20644;-60
2023/08/03 08:18:05;;;;;;;1.48;0.40;;;20.80;99.90;;;-141.84;54.43;21724.72;5063389;28;20240;-59
2023/08/03 08:20:33;;;;;;;2.05;0.50;;;20.80;99.90;;;-141.84;54.66;21690.16;5037807;28;20243;-61
2023/08/03 08:23:03;;;;;;;1.88;0.52;;;20.70;99.90;;;-141.84;54.72;21675.94;5043780;28;20235;-61
2023/08/03 08:25:33;;;;;;;1.25;0.65;;;20.70;99.90;;;-141.84;54.45;21669.81;5047632;28;20223;-61
2023/08/03 08:28:02;;;;;;;2.60;0.80;;;20.70;99.90;;;-141.84;55.13;21655.59;5062611;28;20735;-60
2023/08/03 08:30:30;;;;;;;0.63;0.60;;;;;;;-141.84;54.72;21627.13;5057781;28;20231;-60
2023/08/03 08:32:58;;;;;;;1.55;0.60;;;20.60;99.90;;;-141.84;55.43;21651.53;5061314;28;20232;-59
2023/08/03 08:35:27;;;;;;;3.40;0.63;;;20.50;99.90;;;-141.84;55.00;21616.97;5061848;28;20310;-58
2023/08/03 08:37:55;;;;;;;2.58;0.60;;;20.50;99.90;;;-141.84;54.83;21649.50;5061827;28;20232;-59
2023/08/03 08:40:24;;;;;;;0.95;0.55;;;20.50;99.90;;;-141.84;55.08;21651.53;5061985;28;20201;-59
2023/08/03 08:42:53;;;;;;;1.55;0.68;;;20.50;99.90;;;-141.84;55.25;21635.25;5055158;28;20299;-59
2023/08/03 08:45:22;;;;;;;2.22;0.50;;;20.50;99.90;;;-141.84;55.33;21637.28;5062282;28;20228;-60
2023/08/03 08:47:50;;;;;;;1.35;0.60;;;20.60;99.90;;;-141.84;54.67;21724.72;5062028;28;20315;-61
2023/08/03 08:50:40;;;;;;;2.17;0.60;;;20.60;99.90;;;-141.84;54.94;21686.09;5054994;28;20287;-61
2023/08/03 08:53:15;;;;;;;0.98;0.60;;;20.60;99.90;;;-141.84;54.26;21708.47;5067670;28;20315;-61
2023/08/03 08:55:46;;;;;;;1.48;0.50;;;20.70;99.90;;;-141.84;54.41;21684.06;5065851;28;20228;-59
2023/08/03 08:58:17;;;;;;;1.80;0.60;;;20.70;99.90;;;-141.84;54.23;21684.06;5067164;28;20782;-61
2023/08/03 09:00:48;;;;;;;2.15;0.82;;;20.70;99.90;;;-141.84;54.60;21673.88;5058547;28;20208;-60
2023/08/03 09:03:17;;;;;;;0.57;0.57;;;20.60;99.90;;;-141.84;54.24;21680.00;5063722;28;20374;-60
2023/08/03 09:05:58;;;;;;;0.70;0.60;;;20.70;99.90;;;-141.84;53.37;21738.97;5062387;28;20236;-59
2023/08/03 09:08:49;;;;;;;1.63;0.50;;;20.80;99.90;;;-141.84;53.80;21738.97;5063699;28;20380;-59
2023/08/03 09:11:18;;;;;;;1.10;0.47;;;20.80;99.90;;;-141.84;53.34;21747.09;5051257;28;20252;-60
2023/08/03 09:13:49;;;;;;;1.48;0.55;;;20.90;99.90;;;-141.84;53.63;21779.63;5056678;28;20742;-60
2023/08/03 09:16:26;;;;;;;1.20;0.45;;;21.00;99.90;;;-141.84;53.84;21773.53;5061278;28;20296;-60
2023/08/03 09:18:55;;;;;;;1.00;0.45;;;21.00;99.90;;;-141.84;54.36;21759.28;5055772;28;20229;-59
2023/08/03 09:21:23;;;;;;;0.70;0.50;;;20.90;99.90;;;-141.84;53.84;21777.59;5065425;28;20232;-58
2023/08/03 09:23:55;;;;;;;1.50;0.52;;;21.00;99.90;;;-141.84;53.46;21777.59;5065935;28;20270;-61
2023/08/03 09:26:27;;;;;;;0.47;0.40;;;21.00;99.90;;;-141.84;53.08;21824.34;5066646;28;20688;-60
2023/08/03 09:28:58;;;;;;;0.82;0.43;;;21.20;99.90;;;-141.84;53.58;21826.41;5064841;28;20243;-59
2023/08/03 09:31:31;;;;;;;0.77;0.50;;;21.10;99.90;;;-141.84;52.74;21812.16;5065413;28;20232;-60
2023/08/03 09:34:01;;;;;;;1.55;0.70;;;21.10;99.90;;;-141.84;53.58;21804.03;5065586;28;20672;-60
2023/08/03 09:36:30;;;;;;;1.70;0.50;;;21.10;99.90;;;-141.84;52.12;21873.16;5063537;28;20232;-61
2023/08/03 09:39:13;;;;;;;0.50;0.35;;;21.20;99.90;;;-141.84;51.65;21875.19;5064564;28;20240;-60
2023/08/03 09:41:46;;;;;;;1.15;0.50;;;21.40;99.90;;;-141.84;51.19;21928.06;5047458;28;20235;-61
2023/08/03 09:44:19;;;;;;;2.75;0.63;;;21.50;99.90;;;-141.84;51.94;21944.34;5063732;28;20229;-60
2023/08/03 09:46:49;;;;;;;1.80;0.50;;;21.60;99.90;;;-141.84;51.26;21968.72;5057601;28;20255;-61
2023/08/03 09:49:18;;;;;;;0.70;0.40;;;21.70;99.90;;;-141.84;51.39;21942.31;5058100;28;20640;-61
2023/08/03 09:51:51;;;;;;;2.35;0.77;;;21.70;99.90;;;-141.84;52.14;21919.94;5049738;28;20628;-60
2023/08/03 09:54:35;;;;;;;4.25;0.57;;;21.70;99.90;;;-141.84;51.65;21942.31;5059107;28;20707;-61
2023/08/03 09:57:33;;;;;;;0.43;0.38;;;21.80;99.90;;;-141.84;51.49;21982.97;5065377;28;20235;-60
2023/08/03 10:00:06;;;;;;;1.17;0.57;;;21.70;99.90;;;-141.84;51.42;22015.50;5065096;28;20677;-62
2023/08/03 10:02:45;;;;;;;1.63;0.60;;;21.70;99.90;;;-141.84;50.76;22027.72;5055653;28;20232;-57
2023/08/03 10:05:19;;;;;;;2.05;0.45;;;21.80;99.90;;;-141.84;51.86;21950.44;5063436;28;20298;-59
2023/08/03 10:07:58;;;;;;;0.70;0.50;;;21.80;99.90;;;-141.84;51.47;21921.97;5064021;28;20232;-59
2023/08/03 10:10:32;;;;;;;1.08;0.70;;;21.70;99.90;;;-141.84;51.17;21944.34;5051446;28;20695;-59
2023/08/03 10:13:05;;;;;;;0.70;0.50;;;21.70;99.90;;;-141.84;51.03;21982.97;5064460;28;20208;-59
2023/08/03 10:15:34;;;;;;;1.10;0.52;;;21.80;99.90;;;-141.84;50.96;21952.47;5055341;28;20217;-59
2023/08/03 10:18:05;;;;;;;2.17;0.40;;;21.80;99.90;;;-141.84;51.99;21907.72;5059083;28;20228;-60